createdAt,value
2018-06-27T00:01:58.470Z,25.17
2018-06-27T00:04:29.149Z,21.45
2018-06-27T00:06:59.789Z,24.75
2018-06-27T00:09:30.458Z,21.15
2018-06-27T00:12:01.109Z,23.75
2018-06-27T00:14:31.970Z,27.60
2018-06-27T00:17:02.642Z,26.37
2018-06-27T00:19:33.316Z,23.10
2018-06-27T00:22:04.078Z,27.73
2018-06-27T00:24:34.782Z,23.95
2018-06-27T00:27:05.589Z,28.30
2018-06-27T00:29:36.264Z,25.10
2018-06-27T00:32:06.897Z,25.35
2018-06-27T00:34:37.582Z,22.90
2018-06-27T00:37:08.226Z,24.87
2018-06-27T00:39:38.910Z,22.75
2018-06-27T00:42:09.562Z,23.45
2018-06-27T00:44:40.234Z,25.55
2018-06-27T00:47:10.904Z,23.57
2018-06-27T00:49:41.550Z,24.45
2018-06-27T00:52:12.546Z,25.95
2018-06-27T00:54:43.189Z,25.17
2018-06-27T00:57:13.846Z,22.13
2018-06-27T00:59:44.498Z,25.23
2018-06-27T01:02:15.713Z,24.92
2018-06-27T01:04:46.354Z,24.92
2018-06-27T01:07:17.017Z,35.05
2018-06-27T01:09:47.666Z,19.98
2018-06-27T01:12:18.345Z,20.72
2018-06-27T01:14:49.009Z,22.77
2018-06-27T01:17:20.162Z,21.75
2018-06-27T01:19:50.829Z,22.55
2018-06-27T01:22:21.534Z,21.65
2018-06-27T01:24:52.214Z,22.58
2018-06-27T01:27:22.872Z,23.30
2018-06-27T01:29:53.587Z,23.30
2018-06-27T01:32:24.233Z,21.10
2018-06-27T01:34:54.902Z,24.87
2018-06-27T01:37:25.557Z,26.40
2018-06-27T01:39:56.234Z,25.32
2018-06-27T01:42:26.873Z,21.60
2018-06-27T01:44:57.559Z,23.02
2018-06-27T01:47:28.201Z,21.57
2018-06-27T01:49:59.026Z,22.98
2018-06-27T01:52:29.673Z,24.02
2018-06-27T01:55:00.358Z,23.38
2018-06-27T01:57:31.021Z,23.25
2018-06-27T02:00:01.878Z,22.25
2018-06-27T02:02:32.517Z,21.33
2018-06-27T02:05:03.394Z,23.98
2018-06-27T02:07:34.062Z,26.48
2018-06-27T02:10:05.087Z,27.42
2018-06-27T02:12:35.776Z,23.80
2018-06-27T02:15:06.754Z,26.57
2018-06-27T02:17:37.529Z,23.40
2018-06-27T02:20:08.171Z,25.88
2018-06-27T02:22:39.082Z,20.43
2018-06-27T02:25:09.722Z,25.15
2018-06-27T02:27:40.398Z,24.98
2018-06-27T02:30:11.046Z,23.45
2018-06-27T02:32:41.718Z,25.90
2018-06-27T02:35:12.737Z,24.07
2018-06-27T02:37:43.402Z,23.87
2018-06-27T02:40:14.098Z,22.40
2018-06-27T02:42:44.741Z,26.68
2018-06-27T02:45:15.542Z,23.85
2018-06-27T02:47:46.545Z,25.88
2018-06-27T02:50:17.421Z,27.62
2018-06-27T02:52:48.330Z,24.87
2018-06-27T02:55:18.998Z,28.07
2018-06-27T02:57:49.634Z,27.20
2018-06-27T03:00:20.310Z,23.90
2018-06-27T03:02:50.971Z,25.62
2018-06-27T03:05:21.666Z,21.27
2018-06-27T03:07:52.314Z,24.25
2018-06-27T03:10:23.001Z,25.43
2018-06-27T03:12:53.638Z,24.15
2018-06-27T03:15:24.345Z,21.65
2018-06-27T03:17:54.995Z,21.52
2018-06-27T03:20:25.728Z,27.30
2018-06-27T03:22:56.549Z,25.82
2018-06-27T03:25:27.190Z,22.80
2018-06-27T03:27:57.876Z,21.07
2018-06-27T03:30:28.581Z,22.87
2018-06-27T03:32:59.261Z,24.25
2018-06-27T03:35:29.942Z,24.32
2018-06-27T03:38:00.581Z,25.60
2018-06-27T03:40:31.466Z,25.52
2018-06-27T03:43:02.309Z,24.37
2018-06-27T03:45:32.977Z,23.75
2018-06-27T03:48:03.642Z,22.70
2018-06-27T03:50:34.321Z,24.72
2018-06-27T03:53:04.994Z,26.35
2018-06-27T03:55:35.657Z,23.55
2018-06-27T03:58:06.669Z,27.02
2018-06-27T04:00:37.302Z,29.55
2018-06-27T04:03:08.469Z,23.60
2018-06-27T04:05:39.594Z,25.30
2018-06-27T04:08:10.261Z,25.97
2018-06-27T04:10:40.909Z,24.90
2018-06-27T04:13:11.707Z,27.87
2018-06-27T04:15:42.513Z,25.17
2018-06-27T04:18:13.370Z,25.15
2018-06-27T04:20:44.308Z,25.12
2018-06-27T04:23:15.313Z,25.82
2018-06-27T04:25:45.982Z,27.40
2018-06-27T04:28:16.614Z,27.02
2018-06-27T04:30:47.298Z,27.02
2018-06-27T04:33:17.946Z,28.65
2018-06-27T04:35:48.612Z,25.80
2018-06-27T04:38:19.782Z,28.70
2018-06-27T04:40:50.789Z,25.43
2018-06-27T04:43:21.429Z,24.32
2018-06-27T04:45:52.101Z,25.52
2018-06-27T04:48:22.756Z,31.75
2018-06-27T04:50:53.389Z,26.55
2018-06-27T04:53:24.065Z,25.62
2018-06-27T04:55:54.930Z,27.48
2018-06-27T04:58:25.598Z,27.75
2018-06-27T05:00:56.602Z,27.15
2018-06-27T05:03:27.258Z,30.57
2018-06-27T05:05:57.886Z,32.42
2018-06-27T05:08:28.555Z,33.40
2018-06-27T05:10:59.194Z,36.58
2018-06-27T05:13:29.861Z,36.58
2018-06-27T05:16:00.944Z,36.70
2018-06-27T05:18:31.758Z,32.90
2018-06-27T05:21:02.441Z,38.33
2018-06-27T05:23:33.101Z,33.95
2018-06-27T05:26:03.774Z,33.23
2018-06-27T05:28:34.432Z,29.65
2018-06-27T05:31:06.239Z,33.00
2018-06-27T05:33:37.558Z,32.90
2018-06-27T05:36:08.621Z,30.37
2018-06-27T05:38:39.289Z,31.73
2018-06-27T05:41:10.265Z,31.95
2018-06-27T05:43:40.937Z,35.25
2018-06-27T05:46:11.586Z,34.27
2018-06-27T05:48:42.266Z,31.55
2018-06-27T05:51:12.922Z,37.55
2018-06-27T05:53:43.582Z,35.60
2018-06-27T05:56:14.213Z,33.38
2018-06-27T05:58:44.873Z,33.60
2018-06-27T06:01:15.510Z,34.23
2018-06-27T06:03:46.179Z,32.98
2018-06-27T06:06:16.835Z,34.95
2018-06-27T06:08:47.466Z,32.48
2018-06-27T06:11:18.194Z,31.35
2018-06-27T06:13:48.978Z,34.45
2018-06-27T06:16:19.664Z,32.00
2018-06-27T06:18:50.292Z,33.35
2018-06-27T06:21:20.970Z,36.38
2018-06-27T06:23:51.601Z,32.05
2018-06-27T06:26:22.266Z,30.90
2018-06-27T06:28:52.897Z,30.88
2018-06-27T06:31:23.558Z,33.02
2018-06-27T06:33:54.222Z,29.60
2018-06-27T06:36:24.889Z,30.27
2018-06-27T06:38:55.526Z,33.25
2018-06-27T06:41:26.189Z,29.18
2018-06-27T06:43:56.821Z,32.93
2018-06-27T06:46:27.466Z,30.20
2018-06-27T06:48:58.110Z,27.15
2018-06-27T06:51:28.774Z,25.37
2018-06-27T06:53:59.480Z,26.75
2018-06-27T06:56:30.142Z,27.65
2018-06-27T06:59:00.790Z,23.77
2018-06-27T07:01:31.473Z,29.07
2018-06-27T07:04:02.474Z,24.95
2018-06-27T07:06:33.159Z,29.32
2018-06-27T07:09:05.950Z,30.23
2018-06-27T07:11:36.698Z,24.67
2018-06-27T07:14:07.423Z,24.12
2018-06-27T07:16:38.650Z,26.00
2018-06-27T07:19:09.426Z,21.80
2018-06-27T07:21:40.066Z,22.10
2018-06-27T07:24:10.754Z,22.27
2018-06-27T07:26:41.388Z,22.87
2018-06-27T07:29:12.062Z,23.55
2018-06-27T07:31:42.734Z,23.65
2018-06-27T07:34:13.442Z,22.17
2018-06-27T07:36:44.441Z,28.47
2018-06-27T07:39:15.636Z,25.92
2018-06-27T07:41:46.502Z,20.00
2018-06-27T07:44:17.170Z,22.02
2018-06-27T07:46:48.157Z,19.27
2018-06-27T07:49:19.178Z,20.85
2018-06-27T07:51:50.014Z,19.80
2018-06-27T07:54:20.670Z,20.10
2018-06-27T07:56:51.350Z,24.02
2018-06-27T07:59:21.990Z,19.77
2018-06-27T08:01:52.674Z,20.45
2018-06-27T08:04:23.318Z,23.27
2018-06-27T08:06:53.990Z,22.80
2018-06-27T08:09:24.629Z,21.73
2018-06-27T08:11:55.302Z,21.15
2018-06-27T08:14:25.959Z,18.50
2018-06-27T08:16:56.634Z,19.45
2018-06-27T08:19:27.273Z,20.15
2018-06-27T08:21:57.966Z,16.97
2018-06-27T08:24:28.599Z,17.85
2018-06-27T08:26:59.262Z,14.23
2018-06-27T08:29:29.906Z,17.45
2018-06-27T08:32:00.573Z,18.05
2018-06-27T08:34:31.406Z,17.15
2018-06-27T08:37:02.290Z,14.60
2018-06-27T08:39:32.920Z,16.07
2018-06-27T08:42:03.581Z,13.15
2018-06-27T08:44:34.414Z,18.82
2018-06-27T08:47:04.775Z,13.47
2018-06-27T08:49:35.615Z,13.35
2018-06-27T08:52:06.386Z,16.85
2018-06-27T08:54:42.286Z,14.28
2018-06-27T08:57:12.951Z,15.58
2018-06-27T08:59:43.762Z,15.65
2018-06-27T09:02:14.623Z,13.40
2018-06-27T09:04:45.287Z,18.60
2018-06-27T09:07:15.958Z,13.40
2018-06-27T09:09:46.630Z,15.55
2018-06-27T09:12:17.446Z,17.95
2018-06-27T09:14:48.134Z,19.15
2018-06-27T09:17:18.482Z,18.73
2018-06-27T09:19:49.486Z,13.25
2018-06-27T09:22:19.930Z,11.85
2018-06-27T09:24:50.650Z,12.82
2018-06-27T09:27:21.310Z,12.00
2018-06-27T09:29:51.950Z,11.05
2018-06-27T09:32:22.314Z,9.67
2018-06-27T09:34:52.654Z,7.47
2018-06-27T09:37:23.006Z,8.27
2018-06-27T09:39:53.339Z,6.40
2018-06-27T09:42:23.710Z,7.40
2018-06-27T09:44:54.258Z,9.50
2018-06-27T09:47:24.911Z,10.05
2018-06-27T09:49:55.538Z,13.30
2018-06-27T09:52:25.890Z,9.10
2018-06-27T09:54:58.158Z,10.97
2018-06-27T09:57:28.530Z,10.37
2018-06-27T10:00:05.982Z,6.60
2018-06-27T10:02:36.317Z,7.73
2018-06-27T10:05:06.687Z,6.67
2018-06-27T10:07:37.059Z,11.43
2018-06-27T10:10:07.622Z,8.47
2018-06-27T10:12:38.009Z,7.97
2018-06-27T10:15:09.002Z,7.43
2018-06-27T10:17:39.350Z,8.50
2018-06-27T10:20:09.709Z,9.27
2018-06-27T10:22:40.398Z,10.47
2018-06-27T10:25:10.935Z,11.43
2018-06-27T10:27:41.262Z,9.47
2018-06-27T10:30:11.635Z,10.20
2018-06-27T10:32:42.166Z,8.43
2018-06-27T10:35:12.530Z,7.50
2018-06-27T10:37:42.872Z,5.27
2018-06-27T10:40:13.251Z,9.40
2018-06-27T10:42:43.585Z,9.30
2018-06-27T10:45:13.954Z,6.40
2018-06-27T10:47:44.306Z,8.20
2018-06-27T10:50:15.039Z,5.80
2018-06-27T10:52:45.369Z,6.67
2018-06-27T10:55:20.855Z,6.27
2018-06-27T10:57:51.536Z,4.73
2018-06-27T11:00:22.098Z,4.80
2018-06-27T11:02:52.424Z,6.63
2018-06-27T11:05:22.783Z,5.93
2018-06-27T11:07:53.322Z,6.53
2018-06-27T11:10:23.694Z,4.30
2018-06-27T11:12:54.070Z,4.70
2018-06-27T11:15:24.431Z,4.73
2018-06-27T11:17:55.002Z,7.53
2018-06-27T11:20:25.758Z,5.60
2018-06-27T11:22:56.282Z,5.60
2018-06-27T11:25:26.626Z,4.40
2018-06-27T11:27:57.237Z,5.50
2018-06-27T11:30:27.572Z,5.47
2018-06-27T11:32:57.955Z,5.57
2018-06-27T11:35:28.739Z,6.60
2018-06-27T11:37:59.061Z,4.80
2018-06-27T11:40:29.391Z,4.77
2018-06-27T11:42:59.766Z,4.90
2018-06-27T11:45:30.134Z,5.87
2018-06-27T11:48:00.506Z,3.80
2018-06-27T11:50:31.222Z,4.17
2018-06-27T11:53:01.592Z,6.40
2018-06-27T11:55:31.930Z,3.20
2018-06-27T11:58:02.302Z,4.47
2018-06-27T12:00:32.638Z,4.73
2018-06-27T12:03:03.002Z,4.07
2018-06-27T12:05:33.714Z,5.33
2018-06-27T12:08:04.102Z,10.10
2018-06-27T12:10:34.458Z,5.23
2018-06-27T12:13:04.833Z,5.70
2018-06-27T12:15:35.199Z,2.90
2018-06-27T12:18:05.578Z,2.90
2018-06-27T12:20:36.246Z,3.63
2018-06-27T12:23:06.618Z,7.57
2018-06-27T12:25:36.946Z,4.70
2018-06-27T12:28:07.482Z,3.10
2018-06-27T12:30:37.830Z,2.90
2018-06-27T12:33:08.218Z,4.23
2018-06-27T12:35:38.891Z,3.30
2018-06-27T12:38:09.270Z,3.73
2018-06-27T12:40:39.824Z,4.07
2018-06-27T12:43:10.154Z,2.43
2018-06-27T12:45:40.538Z,2.63
2018-06-27T12:48:10.874Z,3.43
2018-06-27T12:50:41.930Z,2.40
2018-06-27T12:53:12.646Z,2.70
2018-06-27T12:55:43.010Z,3.50
2018-06-27T12:58:13.344Z,2.73
2018-06-27T13:00:43.708Z,3.77
2018-06-27T13:03:14.062Z,2.60
2018-06-27T13:05:44.434Z,3.73
2018-06-27T13:08:15.422Z,2.13
2018-06-27T13:10:46.470Z,3.33
2018-06-27T13:13:17.006Z,3.83
2018-06-27T13:15:47.456Z,3.00
2018-06-27T13:18:17.970Z,2.37
2018-06-27T13:20:48.340Z,3.50
2018-06-27T13:23:18.707Z,4.10
2018-06-27T13:25:49.060Z,2.33
2018-06-27T13:28:19.415Z,1.73
2018-06-27T13:30:49.773Z,2.60
2018-06-27T13:33:20.134Z,4.63
2018-06-27T13:35:50.494Z,2.43
2018-06-27T13:38:20.918Z,3.47
2018-06-27T13:40:51.634Z,2.60
2018-06-27T13:43:22.069Z,4.30
2018-06-27T13:45:52.578Z,1.77
2018-06-27T13:48:22.933Z,2.77
2018-06-27T13:50:53.646Z,3.20
2018-06-27T13:53:24.026Z,5.80
2018-06-27T13:55:54.738Z,2.03
2018-06-27T13:58:25.090Z,3.03
2018-06-27T14:00:55.802Z,4.37
2018-06-27T14:03:26.138Z,2.67
2018-06-27T14:05:56.512Z,3.20
2018-06-27T14:08:26.870Z,2.97
2018-06-27T14:10:57.254Z,2.07
2018-06-27T14:13:27.590Z,2.07
2018-06-27T14:15:57.966Z,2.30
2018-06-27T14:18:28.798Z,4.63
2018-06-27T14:20:59.161Z,2.37
2018-06-27T14:23:29.546Z,4.80
2018-06-27T14:25:59.914Z,3.13
2018-06-27T14:28:30.270Z,4.20
2018-06-27T14:31:01.166Z,1.97
2018-06-27T14:33:31.521Z,1.80
2018-06-27T14:36:01.915Z,3.33
2018-06-27T14:38:32.758Z,3.43
2018-06-27T14:41:03.364Z,3.33
2018-06-27T14:43:34.086Z,1.93
2018-06-27T14:46:04.538Z,2.23
2018-06-27T14:48:34.927Z,3.60
2018-06-27T14:51:05.285Z,4.27
2018-06-27T14:53:35.634Z,5.03
2018-06-27T14:56:06.042Z,3.00
2018-06-27T14:58:36.470Z,4.13
2018-06-27T15:01:07.154Z,2.80
2018-06-27T15:03:37.518Z,3.10
2018-06-27T15:06:07.883Z,5.90
2018-06-27T15:08:38.242Z,3.10
2018-06-27T15:11:08.602Z,2.37
2018-06-27T15:13:39.046Z,2.30
2018-06-27T15:16:09.814Z,3.87
2018-06-27T15:18:41.646Z,2.20
2018-06-27T15:21:12.006Z,2.00
2018-06-27T15:23:42.448Z,2.70
2018-06-27T15:26:12.919Z,1.43
2018-06-27T15:28:43.234Z,4.80
2018-06-27T15:31:13.608Z,1.50
2018-06-27T15:33:44.486Z,2.30
2018-06-27T15:36:14.854Z,2.23
2018-06-27T15:38:45.200Z,1.93
2018-06-27T15:41:15.901Z,3.50
2018-06-27T15:43:46.371Z,1.67
2018-06-27T15:46:16.706Z,1.47
2018-06-27T15:48:47.271Z,1.53
2018-06-27T15:51:17.590Z,1.40
2018-06-27T15:53:47.938Z,2.07
2018-06-27T15:56:18.470Z,1.60
2018-06-27T15:58:48.827Z,2.03
2018-06-27T16:01:19.514Z,1.90
2018-06-27T16:03:50.047Z,2.30
2018-06-27T16:06:20.601Z,1.80
2018-06-27T16:08:50.930Z,2.07
2018-06-27T16:11:21.406Z,2.40
2018-06-27T16:13:52.198Z,2.90
2018-06-27T16:16:22.521Z,2.67
2018-06-27T16:18:52.943Z,1.90
2018-06-27T16:21:23.628Z,2.47
2018-06-27T16:23:54.162Z,2.23
2018-06-27T16:26:24.566Z,4.87
2018-06-27T16:28:54.919Z,2.20
2018-06-27T16:31:25.590Z,2.20
2018-06-27T16:33:55.979Z,2.50
2018-06-27T16:36:26.340Z,2.40
2018-06-27T16:38:56.894Z,4.83
2018-06-27T16:41:27.269Z,2.83
2018-06-27T16:43:57.574Z,2.60
2018-06-27T16:46:27.973Z,5.17
2018-06-27T16:48:58.530Z,3.43
2018-06-27T16:51:29.176Z,2.87
2018-06-27T16:53:59.701Z,3.90
2018-06-27T16:56:30.182Z,2.63
2018-06-27T16:59:00.514Z,3.13
2018-06-27T17:01:31.122Z,3.13
2018-06-27T17:04:01.410Z,3.20
2018-06-27T17:06:31.778Z,3.33
2018-06-27T17:09:02.212Z,2.33
2018-06-27T17:11:32.751Z,4.03
2018-06-27T17:14:03.491Z,2.37
2018-06-27T17:16:34.122Z,3.83
2018-06-27T17:19:04.876Z,2.90
2018-06-27T17:21:35.427Z,8.33
2018-06-27T17:24:05.961Z,2.20
2018-06-27T17:26:36.354Z,7.43
2018-06-27T17:29:07.021Z,4.03
2018-06-27T17:31:37.395Z,4.47
2018-06-27T17:34:07.950Z,2.73
2018-06-27T17:36:38.326Z,2.97
2018-06-27T17:39:09.598Z,3.60
2018-06-27T17:41:40.133Z,4.13
2018-06-27T17:44:10.482Z,4.73
2018-06-27T17:46:41.197Z,3.27
2018-06-27T17:49:11.549Z,2.70
2018-06-27T17:51:41.906Z,3.27
2018-06-27T17:54:12.230Z,5.00
2018-06-27T17:56:42.778Z,2.87
2018-06-27T17:59:13.142Z,4.27
2018-06-27T18:01:43.816Z,9.50
2018-06-27T18:04:14.382Z,4.77
2018-06-27T18:06:44.710Z,5.07
2018-06-27T18:09:15.118Z,6.33
2018-06-27T18:11:45.481Z,4.10
2018-06-27T18:14:16.042Z,3.83
2018-06-27T18:16:46.724Z,2.60
2018-06-27T18:19:17.298Z,6.43
2018-06-27T18:21:47.646Z,6.03
2018-06-27T18:24:18.123Z,5.87
2018-06-27T18:26:48.796Z,2.90
2018-06-27T18:29:19.694Z,5.00
2018-06-27T18:31:50.222Z,4.63
2018-06-27T18:34:21.002Z,3.50
2018-06-27T18:36:52.013Z,3.17
2018-06-27T18:39:22.668Z,5.47
2018-06-27T18:41:53.033Z,4.37
2018-06-27T18:44:23.383Z,2.33
2018-06-27T18:46:53.707Z,3.13
2018-06-27T18:49:25.016Z,2.10
2018-06-27T18:51:56.400Z,3.30
2018-06-27T18:54:27.019Z,3.53
2018-06-27T18:56:57.294Z,2.70
2018-06-27T18:59:27.977Z,3.43
2018-06-27T19:05:03.963Z,2.10
2018-06-27T19:07:34.425Z,2.10
2018-06-27T19:10:05.282Z,4.57
2018-06-27T19:12:35.959Z,2.40
2018-06-27T19:15:07.178Z,2.87
2018-06-27T19:17:37.527Z,2.27
2018-06-27T19:20:07.935Z,5.00
2018-06-27T19:22:38.299Z,1.97
2018-06-27T19:25:08.664Z,1.90
2018-06-27T19:27:39.235Z,4.07
2018-06-27T19:30:09.591Z,1.87
2018-06-27T19:32:40.019Z,2.27
2018-06-27T19:35:10.791Z,2.57
2018-06-27T19:37:41.479Z,2.37
2018-06-27T19:40:11.855Z,1.77
2018-06-27T19:42:42.201Z,3.83
2018-06-27T19:45:12.919Z,1.77
2018-06-27T19:47:43.307Z,1.60
2018-06-27T19:50:13.679Z,1.80
2018-06-27T19:52:44.419Z,3.13
2018-06-27T19:55:15.030Z,2.00
2018-06-27T19:57:45.672Z,3.10
2018-06-27T20:00:16.391Z,2.30
2018-06-27T20:02:46.747Z,3.30
2018-06-27T20:05:17.936Z,2.43
2018-06-27T20:07:48.604Z,2.80
2018-06-27T20:10:19.161Z,3.67
2018-06-27T20:12:51.997Z,3.43
2018-06-27T20:15:26.443Z,2.80
2018-06-27T20:18:06.224Z,3.27
2018-06-27T20:20:39.176Z,2.20
2018-06-27T20:23:16.785Z,2.73
2018-06-27T20:29:16.449Z,2.37
2018-06-27T20:31:49.308Z,2.80
2018-06-27T20:34:24.083Z,2.03
2018-06-27T20:36:58.356Z,1.90
2018-06-27T20:39:34.298Z,3.90
2018-06-27T20:42:15.343Z,1.80
2018-06-27T20:44:52.845Z,3.57
2018-06-27T20:47:27.864Z,3.00
2018-06-27T20:50:05.457Z,1.70
2018-06-27T20:52:39.078Z,3.00
2018-06-27T20:55:14.413Z,3.23
2018-06-27T20:57:51.480Z,1.80
2018-06-27T21:00:26.260Z,3.50
2018-06-27T21:02:59.675Z,3.57
2018-06-27T21:05:34.976Z,2.27
2018-06-27T21:08:11.129Z,2.53
2018-06-27T21:10:46.068Z,2.40
2018-06-27T21:13:20.248Z,2.23
2018-06-27T21:15:50.000Z,2.23
2018-06-27T21:18:20.779Z,2.60
2018-06-27T21:20:51.292Z,2.50
2018-06-27T21:23:21.837Z,2.30
2018-06-27T21:25:52.553Z,4.50
2018-06-27T21:28:23.096Z,2.37
2018-06-27T21:30:53.516Z,2.87
2018-06-27T21:33:23.937Z,3.03
2018-06-27T21:35:54.348Z,2.20
2018-06-27T21:38:24.752Z,2.90
2018-06-27T21:40:55.160Z,3.50
2018-06-27T21:43:25.551Z,2.63
2018-06-27T21:45:55.933Z,3.33
2018-06-27T21:48:26.820Z,3.15
2018-06-27T21:50:57.492Z,2.33
2018-06-27T21:53:28.211Z,2.33
2018-06-27T21:55:58.899Z,4.05
2018-06-27T21:58:29.612Z,4.45
2018-06-27T22:01:00.268Z,2.62
2018-06-27T22:03:30.980Z,3.77
2018-06-27T22:06:01.652Z,2.90
2018-06-27T22:08:32.340Z,3.40
2018-06-27T22:11:03.042Z,3.65
2018-06-27T22:13:33.784Z,2.62
2018-06-27T22:16:04.547Z,2.92
2018-06-27T22:18:35.210Z,2.95
2018-06-27T22:21:05.916Z,3.17
2018-06-27T22:23:36.570Z,2.77
2018-06-27T22:26:07.244Z,4.17
2018-06-27T22:28:37.924Z,3.77
2018-06-27T22:31:08.872Z,3.83
2018-06-27T22:33:40.060Z,3.55
2018-06-27T22:36:10.713Z,3.45
2018-06-27T22:38:41.388Z,2.85
2018-06-27T22:41:12.040Z,6.75
2018-06-27T22:43:42.724Z,3.87
2018-06-27T22:46:13.719Z,2.75
2018-06-27T22:48:44.393Z,2.90
2018-06-27T22:51:15.060Z,4.62
2018-06-27T22:53:45.748Z,4.30
2018-06-27T22:56:16.428Z,3.55
2018-06-27T22:58:47.092Z,5.78
2018-06-27T23:01:17.784Z,2.72
2018-06-27T23:03:48.456Z,4.35
2018-06-27T23:06:19.159Z,3.80
2018-06-27T23:08:49.808Z,4.35
2018-06-27T23:11:20.884Z,3.27
2018-06-27T23:13:51.532Z,5.12
2018-06-27T23:16:22.340Z,4.42
2018-06-27T23:18:52.984Z,3.12
2018-06-27T23:21:24.021Z,4.78
2018-06-27T23:23:54.668Z,3.08
2018-06-27T23:26:25.356Z,3.02
2018-06-27T23:28:56.128Z,3.77
2018-06-27T23:31:26.813Z,3.42
2018-06-27T23:33:57.464Z,3.08
2018-06-27T23:36:28.140Z,3.98
2018-06-27T23:38:58.822Z,5.45
2018-06-27T23:41:29.536Z,2.60
2018-06-27T23:44:00.189Z,3.83
2018-06-27T23:46:30.875Z,4.30
2018-06-27T23:49:01.908Z,3.60
2018-06-27T23:51:32.593Z,3.12
2018-06-27T23:54:03.609Z,2.83
2018-06-27T23:56:34.644Z,4.12
2018-06-27T23:59:05.307Z,3.95
